Ash Springs, Nevada
Current Conditions -  °F | °C
As of 12:35 PM on Monday 22 Dec 2014 (Local Time) from KSGU Reporting Station
Clear Clear  
Wind Chill: 57°   Ceiling: Unl
Heat Index: 57°   Visibility: 10mi
Dew Point: 37°   Wind: 0mph
Humidity: 48%   Direction: NA
Pressure: 29.98"   Gusts: NA
Location:  37.6°N, 114.8°W
Report Text: KSGU 222035Z AUTO 00000KT 10SM CLR 14/03 A2998 RMK AO1
Loading
Personal Weather Stations






























Interactive Weather Map New forecast layout! Learn more

10-Day Weather Forecast

Advertisements
Track Severe Weather on mobile